الصفحة الرئيسية
METAR-TAF:

METAR-TAF

مطار :

Weno, مايكرونيزيا

دائرة عرض: 07-28N, خط طول: 151-51E, ارتفاع: 3 متر

مراقبة الطقس الحالي

تاريخ ووقت الإصدار 32 دقيقة قبل الساعة 23:50UTC
ريح 4 عقدةمن اتجاهات متغيرة
درجة الحرارة 29°درجة مئوية
الرطوبة 89%
ضغط 1011 hPa
الرؤية: 24.1 كم
غيوم قليلة على ارتفاع 1400 قدم, مزنة ركامية.
غيوم مفككة على ارتفاع 12000 قدم
ملبد بالغيوم على ارتفاع 28000 قدم

METAR: PTKK 182350Z VRB04KT 15SM FEW014CB BKN120 OVC280 29/27 A2985 RMK CB OHD SLP110 8/371 T02890269 10294 20276 50014

زمن: 10:22 (00:22 UTC)

توقعات

تاريخ ووقت الإصدار 51 دقيقة قبل الساعة 23:31UTC
التوقعات صالحة من18 الساعة 00 UTC إلى 18 الساعة 24 UTC
ريح 6 عقدةمن اتجاهات متغيرة
الرؤية: 10 كم
غيوم متفرقة على ارتفاع 1400 قدم
غيوم مفككة على ارتفاع 12000 قدم
زخات في الجوار

TAF: PTKK 172331Z 1800/1824 VRB06KT P6SM VCSH SCT014 BKN120

أرصاد الطقس والتوقعات من أكثر من 4000 مطار (تقارير الطقس للمطار METAR والتنبؤ بالطقس بالمطارTAF).

المحطات المتاحة هي النقط الصفراء والحمراء على الخريطة.

حرك المؤشر فوق النقطة لمعرفة اسم المحطة.

ثم انقر لمعرفة أرصاد وتوقعات الطقس.

لتغيير الخارطة: اضغط على الأزرار الخضراء مع رمز الصليب الأسود للتكبير. على الزر الأخضر مع شرطة للتصغير، أو على الأسهم الخضراء للخرائط المجاورة.


METAR-TAF: